Time;durP1;ratioP1;P1;durP2;ratioP2;P2;SDS_P1;SDS_P2;PMS_P1;PMS_P2;Temp;Humidity;BMP_temperature;BMP_pressure;BME280_temperature;BME280_humidity;BME280_pressure;Samples;Min_cycle;Max_cycle;Signal;HPM_P1;HPM_P2
2021/05/13 00:01:48;;;;;;;3.35;3.05;;;17.60;99.90;;;;;;5063709;28;20656;-69
2021/05/13 00:04:15;;;;;;;3.30;3.00;;;17.60;99.90;;;;;;5055989;28;20206;-68
2021/05/13 00:06:42;;;;;;;2.90;2.70;;;17.60;99.90;;;;;;5052928;28;20544;-69
2021/05/13 00:09:10;;;;;;;3.75;2.80;;;17.60;99.90;;;;;;5063195;28;20261;-68
2021/05/13 00:11:37;;;;;;;4.40;3.22;;;17.50;99.90;;;;;;5052331;28;20678;-68
2021/05/13 00:14:06;;;;;;;4.50;3.17;;;17.60;99.90;;;;;;5068007;28;20254;-68
2021/05/13 00:16:34;;;;;;;3.30;2.97;;;17.50;99.90;;;;;;5061686;28;20214;-69
2021/05/13 00:19:04;;;;;;;4.50;2.90;;;17.50;99.90;;;;;;5064753;28;20226;-68
2021/05/13 00:21:31;;;;;;;4.15;3.60;;;17.50;99.90;;;;;;5052754;28;20274;-68
2021/05/13 00:23:58;;;;;;;5.90;3.72;;;17.50;99.90;;;;;;5052607;28;20524;-68
2021/05/13 00:26:35;;;;;;;4.38;3.35;;;17.50;99.90;;;;;;5053772;28;20207;-68
2021/05/13 00:29:01;;;;;;;3.67;3.38;;;17.50;99.90;;;;;;5062593;28;20194;-68
2021/05/13 00:31:27;;;;;;;6.20;3.72;;;17.50;99.90;;;;;;5058539;28;20645;-70
2021/05/13 00:33:54;;;;;;;3.28;3.08;;;17.40;99.90;;;;;;5065807;28;20232;-69
2021/05/13 00:36:20;;;;;;;5.38;3.97;;;17.40;99.90;;;;;;5072077;28;20233;-68
2021/05/13 00:38:46;;;;;;;3.05;2.80;;;17.40;99.90;;;;;;5069132;28;20198;-70
2021/05/13 00:41:13;;;;;;;4.60;3.22;;;17.40;99.90;;;;;;5068998;28;20535;-70
2021/05/13 00:43:39;;;;;;;4.22;3.05;;;17.40;99.90;;;;;;5072071;28;20202;-70
2021/05/13 00:46:06;;;;;;;3.50;3.03;;;17.40;99.90;;;;;;5062604;28;20210;-70
2021/05/13 00:48:34;;;;;;;3.33;3.05;;;17.30;99.90;;;;;;5058303;28;20194;-70
2021/05/13 00:51:01;;;;;;;3.50;3.15;;;17.30;99.90;;;;;;5070102;28;20209;-69
2021/05/13 00:53:27;;;;;;;3.78;3.47;;;17.30;99.90;;;;;;5070807;28;20653;-70
2021/05/13 00:55:53;;;;;;;4.57;4.18;;;17.30;99.90;;;;;;5069709;28;20269;-70
2021/05/13 00:58:25;;;;;;;3.67;3.38;;;17.30;99.90;;;;;;5060050;28;20662;-70
2021/05/13 01:01:02;;;;;;;3.72;3.42;;;17.20;99.90;;;;;;5070673;28;20198;-68
2021/05/13 01:03:28;;;;;;;3.88;3.08;;;17.20;99.90;;;;;;5069996;28;20840;-69
2021/05/13 01:05:54;;;;;;;3.20;2.95;;;17.20;99.90;;;;;;5053584;28;20229;-70
2021/05/13 01:08:21;;;;;;;3.83;3.45;;;17.20;99.90;;;;;;5053164;28;20214;-71
2021/05/13 01:10:47;;;;;;;4.10;3.13;;;17.20;99.90;;;;;;5070689;28;20207;-68
2021/05/13 01:13:17;;;;;;;3.95;3.30;;;17.20;99.90;;;;;;5061976;28;20562;-69
2021/05/13 01:15:48;;;;;;;3.50;3.20;;;17.20;99.90;;;;;;5065508;28;20206;-69
2021/05/13 01:18:17;;;;;;;3.60;3.30;;;17.10;99.90;;;;;;5058013;28;20698;-69
2021/05/13 01:20:43;;;;;;;4.28;3.97;;;17.20;99.90;;;;;;5060815;28;20228;-69
2021/05/13 01:23:13;;;;;;;4.53;3.35;;;17.10;99.90;;;;;;5068638;28;20201;-68
2021/05/13 01:25:49;;;;;;;3.72;3.22;;;17.10;99.90;;;;;;5058568;28;20190;-68
2021/05/13 01:28:15;;;;;;;3.67;3.45;;;17.10;99.90;;;;;;5067019;28;20233;-68
2021/05/13 01:30:44;;;;;;;4.40;3.45;;;17.10;99.90;;;;;;5051822;28;20199;-70
2021/05/13 01:33:11;;;;;;;3.90;3.53;;;17.10;99.90;;;;;;5069392;28;20197;-69
2021/05/13 01:35:37;;;;;;;3.83;3.50;;;17.10;99.90;;;;;;5062777;28;20312;-69
2021/05/13 01:38:06;;;;;;;5.95;4.63;;;17.00;99.90;;;;;;5068520;28;20260;-69
2021/05/13 01:40:34;;;;;;;4.50;4.10;;;17.00;99.90;;;;;;5070983;28;20694;-69
2021/05/13 01:43:00;;;;;;;4.38;4.07;;;17.00;99.90;;;;;;5060814;28;20195;-70
2021/05/13 01:45:27;;;;;;;5.78;4.80;;;17.00;99.90;;;;;;5065583;28;20245;-69
2021/05/13 01:48:01;;;;;;;4.28;3.88;;;17.00;99.90;;;;;;5050435;28;20218;-69
2021/05/13 01:50:28;;;;;;;3.88;3.58;;;17.00;99.90;;;;;;5065891;28;20257;-69
2021/05/13 01:52:54;;;;;;;4.47;4.07;;;17.00;99.90;;;;;;5069398;28;20201;-68
2021/05/13 01:55:21;;;;;;;4.60;4.25;;;16.90;99.90;;;;;;5070780;28;20546;-69
2021/05/13 01:57:48;;;;;;;4.85;4.32;;;16.90;99.90;;;;;;5069609;28;20648;-70
2021/05/13 02:00:14;;;;;;;4.03;3.63;;;16.90;99.90;;;;;;5058756;28;20199;-69
2021/05/13 02:02:43;;;;;;;4.18;3.78;;;16.90;99.90;;;;;;5066138;28;20194;-69
2021/05/13 02:05:10;;;;;;;4.15;3.85;;;16.90;99.90;;;;;;5068937;28;20190;-70
2021/05/13 02:07:37;;;;;;;4.00;3.70;;;16.80;99.90;;;;;;5069841;28;20744;-70
2021/05/13 02:10:04;;;;;;;3.63;3.33;;;16.80;99.90;;;;;;5069190;28;20198;-70
2021/05/13 02:12:30;;;;;;;6.22;4.97;;;16.80;99.90;;;;;;5068326;28;20202;-70
2021/05/13 02:14:57;;;;;;;4.18;3.78;;;16.80;99.90;;;;;;5070541;28;20213;-70
2021/05/13 02:17:23;;;;;;;3.60;3.30;;;16.70;99.90;;;;;;5056904;28;20210;-70
2021/05/13 02:19:49;;;;;;;4.30;4.00;;;16.70;99.90;;;;;;5063912;28;20686;-70
2021/05/13 02:22:16;;;;;;;3.42;3.13;;;16.70;99.90;;;;;;5050481;28;20202;-70
2021/05/13 02:24:42;;;;;;;4.63;3.58;;;16.70;99.90;;;;;;5050211;28;20206;-70
2021/05/13 02:27:08;;;;;;;3.20;3.00;;;16.70;99.90;;;;;;5059981;28;20191;-71
2021/05/13 02:29:34;;;;;;;4.03;3.67;;;16.70;99.90;;;;;;5050980;28;20194;-70
2021/05/13 02:32:01;;;;;;;4.07;3.78;;;16.60;99.90;;;;;;5062464;28;20201;-69
2021/05/13 02:34:27;;;;;;;3.60;3.30;;;16.60;99.90;;;;;;5062459;28;20194;-70
2021/05/13 02:36:53;;;;;;;4.93;3.95;;;16.60;99.90;;;;;;5049908;28;20230;-70
2021/05/13 02:39:20;;;;;;;4.80;3.20;;;16.60;99.90;;;;;;5057545;28;20190;-70
2021/05/13 02:41:46;;;;;;;3.58;3.28;;;16.60;99.90;;;;;;5066134;28;20206;-70
2021/05/13 02:44:12;;;;;;;3.95;3.47;;;16.60;99.90;;;;;;5054957;28;20243;-69
2021/05/13 02:46:38;;;;;;;3.38;3.08;;;16.60;99.90;;;;;;5063078;28;20195;-69
2021/05/13 02:49:05;;;;;;;3.65;3.35;;;16.60;99.90;;;;;;5052884;28;20214;-68
2021/05/13 02:51:32;;;;;;;3.85;3.55;;;16.50;99.90;;;;;;5068632;28;20216;-69
2021/05/13 02:53:58;;;;;;;6.05;4.10;;;16.50;99.90;;;;;;5051283;28;20206;-69
2021/05/13 02:56:24;;;;;;;4.30;3.90;;;16.50;99.90;;;;;;5049976;28;20273;-69
2021/05/13 02:58:51;;;;;;;3.53;3.22;;;16.40;99.90;;;;;;5058098;28;20198;-69
2021/05/13 03:01:24;;;;;;;5.65;4.25;;;16.40;99.90;;;;;;5064289;28;20630;-69
2021/05/13 03:03:51;;;;;;;3.80;3.35;;;16.40;99.90;;;;;;5052277;28;20314;-69
2021/05/13 03:06:18;;;;;;;3.75;3.38;;;16.40;99.90;;;;;;5067339;28;20198;-68
2021/05/13 03:08:45;;;;;;;3.80;3.40;;;16.40;99.90;;;;;;5067014;28;20207;-70
2021/05/13 03:11:11;;;;;;;5.13;4.60;;;16.30;99.90;;;;;;5063119;28;20249;-69
2021/05/13 03:13:38;;;;;;;4.22;3.80;;;16.30;99.90;;;;;;5051979;28;20248;-69
2021/05/13 03:16:04;;;;;;;4.30;3.70;;;16.30;99.90;;;;;;5064778;28;20215;-69
2021/05/13 03:18:33;;;;;;;4.05;3.75;;;16.30;99.90;;;;;;5063482;28;20199;-69
2021/05/13 03:21:04;;;;;;;4.55;4.00;;;16.30;99.90;;;;;;5068158;28;20516;-69
2021/05/13 03:23:38;;;;;;;4.40;4.10;;;16.30;99.90;;;;;;5068799;28;20194;-69
2021/05/13 03:26:05;;;;;;;4.15;3.75;;;16.20;99.90;;;;;;5064109;28;20226;-70
2021/05/13 03:28:31;;;;;;;4.43;4.03;;;16.20;99.90;;;;;;5053324;28;20195;-70
2021/05/13 03:30:57;;;;;;;4.22;3.80;;;16.20;99.90;;;;;;5051979;28;20680;-70
2021/05/13 03:33:24;;;;;;;4.60;4.15;;;16.20;99.90;;;;;;5053277;28;20199;-70
2021/05/13 03:35:50;;;;;;;5.65;3.95;;;16.20;99.90;;;;;;5053226;28;20225;-70
2021/05/13 03:38:16;;;;;;;4.32;3.47;;;16.20;99.90;;;;;;5055816;28;20211;-70
2021/05/13 03:40:44;;;;;;;6.00;3.63;;;16.20;99.90;;;;;;5065206;28;20191;-70
2021/05/13 03:43:10;;;;;;;4.63;4.22;;;16.10;99.90;;;;;;5065952;28;20202;-70
2021/05/13 03:45:37;;;;;;;5.15;4.10;;;16.10;99.90;;;;;;5069357;28;20198;-70
2021/05/13 03:48:04;;;;;;;7.40;4.22;;;16.10;99.90;;;;;;5059012;28;20228;-69
2021/05/13 03:50:32;;;;;;;4.53;4.15;;;16.10;99.90;;;;;;5056161;28;20287;-69
2021/05/13 03:52:58;;;;;;;3.92;3.70;;;16.10;99.90;;;;;;5052869;28;20654;-69
2021/05/13 03:55:24;;;;;;;4.75;4.10;;;16.10;99.90;;;;;;5056609;28;20215;-70
2021/05/13 03:57:55;;;;;;;5.20;4.53;;;16.10;99.90;;;;;;5057234;28;20209;-69
2021/05/13 04:00:27;;;;;;;4.60;4.20;;;16.00;99.90;;;;;;5059152;28;20201;-70
2021/05/13 04:02:53;;;;;;;7.95;4.35;;;16.00;99.90;;;;;;5071368;28;20252;-70
2021/05/13 04:05:19;;;;;;;5.80;4.40;;;16.00;99.90;;;;;;5052866;28;20218;-70
2021/05/13 04:07:47;;;;;;;4.50;4.20;;;16.00;99.90;;;;;;5052697;28;20213;-70
2021/05/13 04:10:14;;;;;;;4.38;3.97;;;16.00;99.90;;;;;;5057806;28;20619;-70
2021/05/13 04:12:41;;;;;;;5.00;3.95;;;16.00;99.90;;;;;;5072547;28;20198;-70
2021/05/13 04:15:10;;;;;;;4.13;3.72;;;15.90;99.90;;;;;;5069578;28;20831;-70
2021/05/13 04:17:37;;;;;;;4.70;4.30;;;15.90;99.90;;;;;;5052207;28;20302;-70
2021/05/13 04:20:05;;;;;;;4.32;3.97;;;15.90;99.90;;;;;;5065381;28;20226;-70
2021/05/13 04:22:31;;;;;;;4.45;4.15;;;15.90;99.90;;;;;;5072381;28;20669;-69
2021/05/13 04:24:57;;;;;;;4.00;3.70;;;15.90;99.90;;;;;;5060820;28;20210;-69
2021/05/13 04:27:23;;;;;;;4.65;4.15;;;15.90;99.90;;;;;;5052391;28;20191;-70
2021/05/13 04:29:49;;;;;;;4.72;4.30;;;15.90;99.90;;;;;;5054805;28;20285;-70
2021/05/13 04:32:16;;;;;;;4.25;3.85;;;15.90;99.90;;;;;;5052664;28;20277;-70
2021/05/13 04:34:42;;;;;;;4.25;3.85;;;15.90;99.90;;;;;;5052232;28;20201;-69
2021/05/13 04:37:09;;;;;;;4.95;4.65;;;15.90;99.90;;;;;;5056222;28;20222;-69
2021/05/13 04:39:35;;;;;;;4.18;3.75;;;15.80;99.90;;;;;;5070622;28;20199;-69
2021/05/13 04:42:01;;;;;;;6.60;4.78;;;15.90;99.90;;;;;;5057874;28;20199;-69
2021/05/13 04:44:27;;;;;;;5.00;4.15;;;15.80;99.90;;;;;;5058618;28;20257;-69
2021/05/13 04:46:58;;;;;;;4.70;4.30;;;15.80;99.90;;;;;;5063865;28;20222;-69
2021/05/13 04:49:26;;;;;;;4.40;4.00;;;15.80;99.90;;;;;;5059909;28;20205;-69
2021/05/13 04:51:52;;;;;;;5.82;4.50;;;15.80;99.90;;;;;;5060729;28;20202;-69
2021/05/13 04:54:19;;;;;;;4.63;4.05;;;15.80;99.90;;;;;;5060890;28;20194;-68
2021/05/13 04:56:45;;;;;;;5.45;3.92;;;15.80;99.90;;;;;;5065118;28;20214;-68
2021/05/13 04:59:12;;;;;;;4.35;3.95;;;15.80;99.90;;;;;;5063490;28;20190;-68
2021/05/13 05:01:38;;;;;;;4.43;4.03;;;15.80;99.90;;;;;;5053931;28;20285;-69
2021/05/13 05:04:05;;;;;;;4.18;3.88;;;15.80;99.90;;;;;;5051040;28;20210;-69
2021/05/13 05:06:33;;;;;;;4.20;3.83;;;15.80;99.90;;;;;;5053698;28;20198;-69
2021/05/13 05:09:00;;;;;;;4.70;3.65;;;15.70;99.90;;;;;;5071375;28;20205;-69
2021/05/13 05:11:26;;;;;;;4.07;3.78;;;15.80;99.90;;;;;;5053459;28;20643;-70
2021/05/13 05:13:52;;;;;;;4.50;4.20;;;15.80;99.90;;;;;;5051569;28;20198;-69
2021/05/13 05:16:19;;;;;;;4.22;3.85;;;15.70;99.90;;;;;;5054064;28;20222;-69
2021/05/13 05:18:45;;;;;;;6.25;3.72;;;15.80;99.90;;;;;;5070202;28;20205;-70
2021/05/13 05:21:11;;;;;;;4.78;4.20;;;15.80;99.90;;;;;;5065627;28;20620;-70
2021/05/13 05:23:39;;;;;;;5.15;4.75;;;15.80;99.90;;;;;;5070169;28;20209;-70
2021/05/13 05:26:06;;;;;;;5.05;4.55;;;15.80;99.90;;;;;;5067679;28;20201;-70
2021/05/13 05:28:32;;;;;;;5.65;5.05;;;15.80;99.90;;;;;;5052644;28;20194;-70
2021/05/13 05:30:59;;;;;;;7.85;7.22;;;15.80;99.90;;;;;;5057860;28;20202;-70
2021/05/13 05:33:26;;;;;;;7.07;5.65;;;15.90;99.90;;;;;;5055839;28;20207;-70
2021/05/13 05:35:52;;;;;;;7.55;6.68;;;16.10;99.90;;;;;;5052860;28;20222;-70
2021/05/13 05:38:19;;;;;;;7.13;5.97;;;16.30;99.90;;;;;;5070414;28;20198;-70
2021/05/13 05:40:47;;;;;;;6.82;6.22;;;16.40;99.90;;;;;;5061916;28;20245;-69
2021/05/13 05:43:13;;;;;;;5.85;5.22;;;16.60;99.90;;;;;;5057262;28;20269;-68
2021/05/13 05:45:39;;;;;;;5.28;4.82;;;16.70;99.90;;;;;;5064241;28;20198;-69
2021/05/13 05:48:06;;;;;;;7.30;4.95;;;16.80;99.90;;;;;;5059986;28;20206;-68
2021/05/13 05:50:35;;;;;;;5.53;5.03;;;16.90;99.90;;;;;;5069909;28;20228;-68
2021/05/13 05:53:02;;;;;;;6.55;5.72;;;17.00;99.90;;;;;;5068559;28;20194;-68
2021/05/13 05:55:28;;;;;;;6.78;6.18;;;17.10;99.90;;;;;;5060922;28;20630;-68
2021/05/13 05:57:56;;;;;;;6.85;6.25;;;17.20;99.90;;;;;;5055445;28;20202;-68
2021/05/13 06:00:22;;;;;;;6.43;5.82;;;17.30;99.90;;;;;;5064111;28;20896;-68
2021/05/13 06:02:48;;;;;;;8.50;6.70;;;17.50;99.90;;;;;;5069053;28;20653;-69
2021/05/13 06:05:15;;;;;;;6.57;6.07;;;17.60;99.90;;;;;;5070313;28;20263;-69
2021/05/13 06:07:41;;;;;;;8.48;7.05;;;17.70;99.90;;;;;;5060045;28;20198;-70
2021/05/13 06:10:09;;;;;;;7.30;6.60;;;17.70;99.90;;;;;;5065441;28;20194;-69
2021/05/13 06:12:36;;;;;;;7.35;6.65;;;17.80;99.90;;;;;;5059410;28;20198;-69
2021/05/13 06:15:05;;;;;;;7.00;6.30;;;17.90;99.90;;;;;;5050612;28;20535;-69
2021/05/13 06:17:31;;;;;;;6.13;5.63;;;18.00;99.90;;;;;;5054784;28;20218;-69
2021/05/13 06:20:01;;;;;;;7.32;6.45;;;18.10;99.90;;;;;;5061471;28;20240;-67
2021/05/13 06:22:27;;;;;;;10.05;6.47;;;18.20;99.90;;;;;;5056427;28;20202;-68
2021/05/13 06:24:53;;;;;;;7.55;6.85;;;18.30;99.90;;;;;;5060120;28;20194;-67
2021/05/13 06:27:20;;;;;;;7.53;5.70;;;18.40;99.90;;;;;;5061309;28;20197;-73
2021/05/13 06:29:47;;;;;;;7.25;5.32;;;18.50;99.90;;;;;;5061737;28;20202;-68
2021/05/13 06:32:14;;;;;;;6.05;5.55;;;18.60;99.90;;;;;;5069469;28;20202;-68
2021/05/13 06:34:40;;;;;;;6.63;6.05;;;18.70;99.90;;;;;;5068749;28;20248;-69
2021/05/13 06:37:06;;;;;;;5.63;5.22;;;18.80;99.90;;;;;;5070109;28;20221;-69
2021/05/13 06:39:33;;;;;;;6.93;6.22;;;18.90;99.90;;;;;;5070406;28;20702;-69
2021/05/13 06:42:00;;;;;;;6.00;5.60;;;18.90;99.90;;;;;;5064593;28;20217;-69
2021/05/13 06:44:26;;;;;;;7.30;6.60;;;19.00;99.90;;;;;;5069735;28;20204;-69
2021/05/13 06:46:52;;;;;;;6.70;5.93;;;19.10;99.90;;;;;;5069377;28;20228;-69
2021/05/13 06:49:19;;;;;;;5.57;5.07;;;19.20;99.70;;;;;;5054587;28;20203;-69
2021/05/13 06:51:46;;;;;;;5.68;5.22;;;19.20;99.40;;;;;;5050261;28;20256;-69
2021/05/13 06:54:13;;;;;;;5.57;5.13;;;19.30;99.10;;;;;;5065329;28;20239;-69
2021/05/13 06:56:40;;;;;;;6.00;5.50;;;19.40;99.00;;;;;;5069834;28;20217;-69
2021/05/13 06:59:07;;;;;;;6.90;6.35;;;19.50;98.80;;;;;;5068721;28;20221;-69
2021/05/13 07:01:33;;;;;;;6.28;4.70;;;19.60;98.60;;;;;;5067903;28;20190;-69
2021/05/13 07:03:59;;;;;;;5.85;5.32;;;19.60;98.30;;;;;;5070789;28;20202;-69
2021/05/13 07:06:26;;;;;;;5.43;4.93;;;19.70;98.10;;;;;;5057692;28;20202;-69
2021/05/13 07:08:52;;;;;;;4.75;4.18;;;19.70;97.90;;;;;;5053959;28;20210;-69
2021/05/13 07:11:18;;;;;;;6.20;5.13;;;19.80;97.80;;;;;;5053553;28;20207;-69
2021/05/13 07:13:44;;;;;;;5.00;4.60;;;19.90;97.60;;;;;;5065846;28;20229;-70
2021/05/13 07:16:11;;;;;;;6.60;5.20;;;19.90;97.30;;;;;;5073523;28;20221;-70
2021/05/13 07:18:37;;;;;;;5.80;5.30;;;20.00;97.20;;;;;;5065739;28;20252;-72
2021/05/13 07:21:03;;;;;;;4.95;3.63;;;20.10;97.00;;;;;;5053711;28;20184;-73
2021/05/13 07:23:30;;;;;;;6.55;5.95;;;20.20;96.80;;;;;;5060781;28;20248;-72
2021/05/13 07:25:58;;;;;;;5.20;4.80;;;20.20;96.70;;;;;;5073258;28;20198;-73
2021/05/13 07:28:24;;;;;;;3.67;3.38;;;20.20;96.60;;;;;;5073067;28;20194;-73
2021/05/13 07:30:50;;;;;;;4.15;3.75;;;20.30;96.40;;;;;;5073342;28;20261;-73
2021/05/13 07:33:16;;;;;;;6.40;3.92;;;20.40;96.10;;;;;;5066270;28;20631;-73
2021/05/13 07:35:42;;;;;;;4.70;4.35;;;20.50;96.00;;;;;;5072828;28;20190;-70
2021/05/13 07:38:09;;;;;;;5.05;3.90;;;20.50;95.80;;;;;;5067911;28;20205;-69
2021/05/13 07:40:37;;;;;;;5.20;3.90;;;20.60;95.50;;;;;;5053440;28;20202;-69
2021/05/13 07:43:04;;;;;;;4.35;3.80;;;20.70;95.30;;;;;;5057362;28;20214;-69
2021/05/13 07:45:33;;;;;;;4.75;4.25;;;20.80;95.10;;;;;;5055956;28;20198;-69
2021/05/13 07:47:59;;;;;;;3.05;2.85;;;20.80;94.90;;;;;;5072840;28;20212;-68
2021/05/13 07:50:26;;;;;;;3.03;2.83;;;20.90;94.70;;;;;;5072193;28;20196;-69
2021/05/13 07:52:53;;;;;;;4.38;4.05;;;21.00;94.50;;;;;;5071661;28;20201;-68
2021/05/13 07:55:19;;;;;;;4.97;4.57;;;21.00;94.20;;;;;;5072469;28;20195;-70
2021/05/13 07:57:47;;;;;;;5.85;5.40;;;21.00;93.90;;;;;;5066845;28;20213;-68
2021/05/13 08:00:14;;;;;;;5.07;4.68;;;21.10;93.80;;;;;;5072721;28;20650;-69
2021/05/13 08:02:41;;;;;;;4.93;4.43;;;21.10;93.80;;;;;;5070950;28;20196;-69
2021/05/13 08:05:08;;;;;;;6.53;4.68;;;21.10;93.70;;;;;;5064780;28;20278;-69
2021/05/13 08:07:34;;;;;;;5.53;4.47;;;21.20;93.70;;;;;;5072493;28;20422;-69
2021/05/13 08:10:01;;;;;;;4.32;4.03;;;21.20;93.60;;;;;;5072606;28;20206;-69
2021/05/13 08:12:27;;;;;;;4.30;3.60;;;21.30;93.50;;;;;;5065999;28;20202;-69
2021/05/13 08:14:54;;;;;;;2.70;2.50;;;21.30;93.40;;;;;;5080724;28;20206;-69
2021/05/13 08:17:20;;;;;;;3.80;3.42;;;21.40;93.30;;;;;;5089313;28;20266;-68
2021/05/13 08:19:46;;;;;;;3.50;2.65;;;21.50;93.00;;;;;;5068358;28;20300;-70
2021/05/13 08:22:13;;;;;;;5.07;4.63;;;21.50;92.90;;;;;;5056509;28;20194;-69
2021/05/13 08:24:39;;;;;;;4.35;3.47;;;21.50;91.70;;;;;;5072310;28;20203;-68
2021/05/13 08:27:05;;;;;;;4.18;3.22;;;21.50;91.90;;;;;;5078790;28;20203;-70
2021/05/13 08:29:32;;;;;;;10.90;9.90;;;21.50;92.10;;;;;;5069650;28;20205;-72
2021/05/13 08:31:59;;;;;;;12.77;11.48;;;21.50;87.40;;;;;;5073532;28;20194;-72
2021/05/13 08:34:26;;;;;;;10.40;9.50;;;21.70;85.60;;;;;;5057882;28;20209;-72
2021/05/13 08:36:52;;;;;;;12.43;10.45;;;21.40;86.40;;;;;;5073109;28;20575;-72
2021/05/13 08:39:18;;;;;;;12.75;10.65;;;21.30;87.30;;;;;;5063620;28;20203;-71
2021/05/13 08:41:44;;;;;;;13.00;10.32;;;21.20;86.40;;;;;;5053166;28;20199;-71
2021/05/13 08:44:10;;;;;;;11.10;10.10;;;21.20;86.00;;;;;;5054865;28;20202;-71
2021/05/13 08:46:38;;;;;;;9.97;8.90;;;21.30;87.00;;;;;;5066699;28;20210;-71
2021/05/13 08:49:06;;;;;;;10.23;6.85;;;21.20;84.70;;;;;;5072427;28;20448;-71
2021/05/13 08:51:32;;;;;;;10.00;6.00;;;21.10;81.90;;;;;;5071988;28;20695;-70
2021/05/13 08:53:59;;;;;;;8.40;5.50;;;21.10;82.00;;;;;;5071623;28;20221;-71
2021/05/13 08:56:27;;;;;;;6.80;4.43;;;21.30;83.50;;;;;;5051409;28;20988;-71
2021/05/13 08:58:55;;;;;;;5.97;4.32;;;21.50;84.60;;;;;;5064721;28;20279;-71
2021/05/13 09:01:23;;;;;;;14.30;5.22;;;21.70;84.90;;;;;;5071938;28;20535;-71
2021/05/13 09:03:51;;;;;;;5.60;3.03;;;21.80;84.20;;;;;;5054595;28;20535;-70
2021/05/13 09:06:27;;;;;;;3.58;2.78;;;21.90;84.90;;;;;;5068731;28;20194;-71
2021/05/13 09:08:55;;;;;;;2.67;2.47;;;22.00;85.00;;;;;;5051806;28;20195;-70
2021/05/13 09:11:21;;;;;;;6.45;3.50;;;22.00;85.30;;;;;;5051731;28;20204;-71
2021/05/13 09:13:59;;;;;;;3.60;3.25;;;22.00;85.00;;;;;;5051551;28;20204;-71
2021/05/13 09:16:27;;;;;;;2.97;2.50;;;22.10;85.10;;;;;;5058657;28;20218;-70
2021/05/13 09:18:54;;;;;;;2.47;2.10;;;22.10;85.00;;;;;;5051266;28;20237;-70
2021/05/13 09:21:21;;;;;;;3.33;3.08;;;22.10;85.90;;;;;;5050935;28;20225;-71
2021/05/13 09:23:47;;;;;;;3.20;2.75;;;22.10;85.50;;;;;;5069001;28;20206;-70
2021/05/13 09:26:16;;;;;;;3.47;2.97;;;22.10;86.10;;;;;;5069566;28;20799;-70
2021/05/13 09:28:43;;;;;;;2.95;2.75;;;22.10;85.70;;;;;;5071321;28;20209;-70
2021/05/13 09:31:35;;;;;;;4.57;2.90;;;22.00;85.90;;;;;;5071296;28;20200;-70
2021/05/13 09:34:06;;;;;;;3.75;3.42;;;21.90;86.60;;;;;;5071131;28;20343;-70
2021/05/13 09:36:35;;;;;;;2.40;2.20;;;21.90;86.50;;;;;;5059184;28;20562;-70
2021/05/13 09:39:20;;;;;;;2.63;2.20;;;21.90;87.60;;;;;;5067314;28;20205;-70
2021/05/13 09:41:57;;;;;;;3.50;2.00;;;21.80;86.90;;;;;;5051114;28;20245;-70
2021/05/13 09:44:32;;;;;;;4.10;3.70;;;21.80;88.20;;;;;;5053285;28;20179;-70
2021/05/13 09:47:12;;;;;;;2.13;1.85;;;21.70;88.30;;;;;;5064238;28;20207;-70
2021/05/13 09:49:56;;;;;;;7.72;2.40;;;21.70;88.50;;;;;;5062541;28;20331;-70
2021/05/13 09:52:40;;;;;;;2.53;2.28;;;21.60;88.70;;;;;;5071016;28;20217;-70
2021/05/13 09:55:12;;;;;;;2.40;2.22;;;21.50;89.30;;;;;;5058592;28;20190;-70
2021/05/13 09:57:38;;;;;;;2.75;1.85;;;21.50;90.10;;;;;;5070545;28;21766;-70
2021/05/13 10:00:06;;;;;;;2.28;1.90;;;21.50;90.10;;;;;;5059383;28;20636;-70
2021/05/13 10:02:32;;;;;;;3.85;2.50;;;21.40;90.20;;;;;;5050850;28;20199;-70
2021/05/13 10:04:59;;;;;;;2.72;2.53;;;21.40;90.20;;;;;;5056581;28;20186;-70
2021/05/13 10:07:27;;;;;;;4.28;2.90;;;21.30;90.30;;;;;;5068896;28;20256;-70
2021/05/13 10:09:54;;;;;;;4.10;3.72;;;21.30;90.10;;;;;;5050745;28;20619;-70
2021/05/13 10:12:21;;;;;;;4.40;4.00;;;21.30;89.90;;;;;;5059985;28;20331;-70
2021/05/13 10:14:50;;;;;;;3.30;3.00;;;21.30;89.80;;;;;;5069099;28;20205;-70
2021/05/13 10:17:17;;;;;;;3.55;2.63;;;21.20;89.10;;;;;;5070200;28;20222;-71
2021/05/13 10:19:47;;;;;;;3.45;3.15;;;21.20;90.00;;;;;;5060025;28;20231;-71
2021/05/13 10:22:14;;;;;;;3.92;3.53;;;21.10;90.00;;;;;;5057935;28;20198;-71
2021/05/13 10:24:41;;;;;;;3.70;3.38;;;21.10;89.20;;;;;;5050341;28;20648;-71
2021/05/13 10:27:17;;;;;;;2.72;2.53;;;21.10;90.00;;;;;;5050327;28;20221;-71
2021/05/13 10:29:44;;;;;;;2.17;1.98;;;21.10;90.40;;;;;;5050019;28;20204;-71
2021/05/13 10:32:14;;;;;;;4.93;3.35;;;21.00;91.00;;;;;;5056923;28;20190;-71
2021/05/13 10:34:52;;;;;;;7.60;6.40;;;21.00;90.80;;;;;;5068948;28;20198;-71
2021/05/13 10:37:26;;;;;;;4.18;3.88;;;21.00;84.00;;;;;;5068383;28;20206;-70
2021/05/13 10:40:41;;;;;;;3.97;3.60;;;21.00;84.60;;;;;;5063618;28;20201;-68
2021/05/13 10:43:09;;;;;;;3.22;2.95;;;21.10;87.00;;;;;;5064148;28;20185;-69
2021/05/13 10:45:43;;;;;;;2.65;2.42;;;21.30;87.80;;;;;;5069486;28;20202;-69
2021/05/13 10:48:19;;;;;;;3.30;2.95;;;21.30;88.60;;;;;;5069789;28;20205;-69
2021/05/13 10:50:57;;;;;;;4.68;4.15;;;21.30;88.70;;;;;;5058846;28;20728;-69
2021/05/13 10:53:49;;;;;;;10.13;4.32;;;21.30;88.20;;;;;;5063605;28;20679;-69
2021/05/13 10:56:22;;;;;;;3.67;3.20;;;21.40;89.00;;;;;;5068705;28;20210;-70
2021/05/13 10:58:59;;;;;;;4.10;3.50;;;21.30;89.00;;;;;;5067894;28;20657;-70
2021/05/13 11:01:44;;;;;;;2.20;2.00;;;21.30;88.10;;;;;;5070908;28;20201;-69
2021/05/13 11:04:35;;;;;;;5.20;4.10;;;21.20;88.70;;;;;;5068182;28;20200;-69
2021/05/13 11:07:03;;;;;;;3.28;2.97;;;21.20;88.00;;;;;;5069877;28;20240;-70
2021/05/13 11:09:55;;;;;;;3.38;2.80;;;21.20;89.20;;;;;;5051455;28;20199;-70
2021/05/13 11:12:23;;;;;;;4.05;3.20;;;21.10;88.90;;;;;;5065580;28;20210;-70
2021/05/13 11:15:08;;;;;;;3.55;2.92;;;21.20;88.40;;;;;;5050516;28;20203;-70
2021/05/13 11:18:07;;;;;;;2.80;2.60;;;21.10;87.50;;;;;;5068370;28;20206;-69
2021/05/13 11:20:39;;;;;;;2.40;2.17;;;21.00;88.40;;;;;;5068062;28;20222;-70
2021/05/13 11:23:07;;;;;;;3.20;2.80;;;21.10;89.60;;;;;;5070287;28;20618;-69
2021/05/13 11:25:43;;;;;;;2.42;2.22;;;21.00;89.00;;;;;;5067584;28;20212;-70
2021/05/13 11:28:38;;;;;;;4.57;2.88;;;21.00;89.10;;;;;;5069542;28;20190;-69
2021/05/13 11:31:14;;;;;;;2.88;2.50;;;21.00;89.20;;;;;;5069001;28;20210;-68
2021/05/13 11:33:42;;;;;;;2.25;2.05;;;21.00;90.00;;;;;;5070262;28;20186;-69
2021/05/13 11:36:10;;;;;;;3.15;2.85;;;21.10;90.40;;;;;;5056458;28;20332;-69
2021/05/13 11:38:37;;;;;;;3.03;1.92;;;21.00;90.20;;;;;;5050992;28;20550;-69
2021/05/13 11:41:04;;;;;;;2.55;2.28;;;21.00;90.50;;;;;;5063779;28;20236;-69
2021/05/13 11:43:32;;;;;;;2.70;1.95;;;21.00;90.50;;;;;;5070279;28;20658;-68
2021/05/13 11:46:00;;;;;;;2.90;1.80;;;21.00;90.50;;;;;;5068898;28;20661;-68
2021/05/13 11:48:30;;;;;;;3.15;2.15;;;21.00;90.60;;;;;;5070537;28;20202;-68
2021/05/13 11:50:58;;;;;;;3.10;2.80;;;21.00;90.70;;;;;;5069642;28;20202;-70
2021/05/13 11:53:26;;;;;;;2.47;2.28;;;21.00;90.50;;;;;;5072962;28;20393;-70
2021/05/13 11:55:53;;;;;;;3.97;3.00;;;21.10;90.50;;;;;;5073489;28;20198;-70
2021/05/13 11:58:44;;;;;;;6.05;2.20;;;21.10;90.50;;;;;;5065633;28;20535;-69
2021/05/13 12:01:23;;;;;;;2.88;2.67;;;21.10;90.40;;;;;;5061038;28;20186;-68
2021/05/13 12:03:51;;;;;;;2.15;1.95;;;21.10;90.10;;;;;;5063712;28;20214;-69
2021/05/13 12:06:17;;;;;;;3.65;2.88;;;21.20;90.20;;;;;;5068705;28;20507;-69
2021/05/13 12:08:43;;;;;;;2.60;2.40;;;21.20;90.20;;;;;;5071713;28;20191;-69
2021/05/13 12:11:21;;;;;;;3.40;3.10;;;21.20;90.30;;;;;;5069542;28;20217;-70
2021/05/13 12:13:48;;;;;;;3.85;2.42;;;21.10;90.00;;;;;;5068717;28;20203;-69
2021/05/13 12:16:15;;;;;;;3.22;2.95;;;21.20;90.20;;;;;;5067379;28;20225;-68
2021/05/13 12:18:43;;;;;;;2.50;2.30;;;21.20;89.90;;;;;;5071385;28;20209;-69
2021/05/13 12:21:12;;;;;;;4.03;3.30;;;21.10;89.60;;;;;;5068390;28;20555;-68
2021/05/13 12:23:40;;;;;;;3.80;1.90;;;21.10;90.00;;;;;;5052763;28;20210;-69
2021/05/13 12:26:07;;;;;;;2.65;2.33;;;21.10;90.20;;;;;;5062275;28;20198;-68
2021/05/13 12:28:34;;;;;;;1.73;1.63;;;21.10;90.40;;;;;;5062644;28;20194;-69
2021/05/13 12:31:00;;;;;;;2.92;2.70;;;21.10;90.50;;;;;;5063457;28;20198;-69
2021/05/13 12:33:31;;;;;;;2.78;2.17;;;21.10;90.40;;;;;;5061690;28;20203;-70
2021/05/13 12:35:58;;;;;;;3.80;2.20;;;21.00;90.20;;;;;;5067156;28;20194;-69
2021/05/13 12:38:25;;;;;;;1.73;1.60;;;21.10;90.30;;;;;;5053794;28;20195;-70
2021/05/13 12:41:06;;;;;;;2.33;1.80;;;21.00;90.60;;;;;;5070688;28;20194;-69
2021/05/13 12:43:33;;;;;;;5.45;2.08;;;21.00;90.80;;;;;;5057931;28;20577;-70
2021/05/13 12:45:59;;;;;;;2.67;1.88;;;21.00;90.80;;;;;;5067072;28;20205;-69
2021/05/13 12:48:27;;;;;;;4.40;1.80;;;21.00;91.00;;;;;;5058993;28;20194;-70
2021/05/13 12:50:59;;;;;;;1.80;1.70;;;21.00;91.20;;;;;;5070304;28;20194;-69
2021/05/13 12:53:27;;;;;;;2.45;2.10;;;21.00;91.10;;;;;;5071988;28;20233;-69